Dowling, Michigan
Current Conditions -  °F | °C
As of 12:53 PM on Sunday 21 Dec 2014 (Local Time) from KBTL Reporting Station
Overcast Overcast  
Wind Chill: 25°   Ceiling: 5000
Heat Index: 34°   Visibility: 7mi
Dew Point: 25°   Wind: 13mph
Humidity: 70%   Direction: 170°S
Pressure: 30.21"   Gusts: NA
Location:  42.52°N, 85.25°W
Report Text: KBTL 211753Z 17011KT 7SM OVC050 01/M04 A3021 RMK AO2 SLP239 T00111039 10011 21011 58019
Loading
Personal Weather Stations






























Interactive Weather Map New forecast layout! Learn more

10-Day Weather Forecast

Advertisements
Track Severe Weather on mobile